Kalliste — FNEH — position and weather

sailwx.info

Track history (hours):
 
Tides and Currents Weather Stations Pressure Air Temp Water Temp Dewpoint Dewpoint Depression Visibility Wind Speed Wind Dir Waves Ship Positions

Kalliste

Last reported at 2017-Oct-20 05:00 UTC. Time now 2017-Oct-20 05:30 UTC.
Position N 43°18' E 005°19'.

Length 165 m; beam 29 m.

Type: Passenger vessel. MMSI: 227202000.

Date/timePositionNaut miles runAvg speedWind from/ knotsBaromVisibWave heightAir tempDewpointWater temp
2017-Oct-20 05:00N 43°18' E 005°19'714.0
2017-Oct-20 04:30N 43°11' E 005°20'137 5.1
2017-Oct-19 01:40N 41°60' E 007°58'319.1
2017-Oct-19 01:30N 42°02' E 007°55'13016.6
2017-Oct-18 17:38N 43°09' E 005°23'215.0
2017-Oct-18 17:30N 43°10' E 005°21'714.8
2017-Oct-18 17:00N 43°17' E 005°16'5 9.6
2017-Oct-18 16:30N 43°20' E 005°20'2 3.6
2017-Oct-18 15:55N 43°19' E 005°22'0 0.0
2017-Oct-18 15:25N 43°19' E 005°22'0 0.0
2017-Oct-18 14:37N 43°19' E 005°22'0 0.0
2017-Oct-18 11:37N 43°19' E 005°22'0 0.0
2017-Oct-18 08:19N 43°19' E 005°22'0 0.2
2017-Oct-18 07:57N 43°19' E 005°22'3 6.6
2017-Oct-18 07:30N 43°21' E 005°19'713.6
2017-Oct-18 07:00N 43°14' E 005°18'7119.2
2017-Oct-18 03:19N 42°36' E 006°40'819.3
2017-Oct-18 02:53N 42°32' E 006°49'1018.9
2017-Oct-18 02:21N 42°27' E 007°02'1318.6
2017-Oct-18 01:40N 42°21' E 007°16'718.7
2017-Oct-18 01:17N 42°17' E 007°25'618.9
2017-Oct-18 00:58N 42°15' E 007°32'919.0
2017-Oct-18 00:31N 42°11' E 007°43'918.2
2017-Oct-18 00:00N 42°05' E 007°53'918.7
2017-Oct-17 23:30N 42°01' E 008°04'919.1
2017-Oct-17 23:00N 41°56' E 008°15'1218.9
2017-Oct-17 22:23N 41°50' E 008°29'718.0
2017-Oct-17 22:00N 41°50' E 008°38'1 0.3
2017-Oct-17 20:10N 41°51' E 008°38'320.0
2017-Oct-17 20:00N 41°50' E 008°34'1719.7
2017-Oct-17 19:10N 41°53' E 008°12'1815.3
2017-Oct-17 18:00N 41°44' E 008°33'10 0.8
2017-Oct-17 04:26N 41°41' E 008°46'818.3
2017-Oct-17 04:01N 41°43' E 008°36'1018.6
2017-Oct-17 03:28N 41°48' E 008°25'1418.3
2017-Oct-17 02:41N 41°56' E 008°08'318.4
2017-Oct-17 02:30N 41°57' E 008°04'1018.5
2017-Oct-17 01:58N 42°02' E 007°53'918.7
2017-Oct-17 01:30N 42°07' E 007°43'1019.2
2017-Oct-17 01:00N 42°12' E 007°32'1019.1
2017-Oct-17 00:30N 42°17' E 007°21'916.8
2017-Oct-17 00:00N 42°21' E 007°11'816.8
2017-Oct-16 23:30N 42°25' E 007°01'916.7
2017-Oct-16 22:58N 42°30' E 006°50'816.7
2017-Oct-16 22:30N 42°34' E 006°42'916.8
2017-Oct-16 22:00N 42°38' E 006°32'816.4
2017-Oct-16 21:30N 42°42' E 006°22'816.3
2017-Oct-16 21:00N 42°46' E 006°12'816.1
2017-Oct-16 20:31N 42°50' E 006°03'815.8
2017-Oct-16 20:00N 42°55' E 005°54'816.0
2017-Oct-16 19:30N 42°59' E 005°45'816.1
2017-Oct-16 19:01N 43°03' E 005°35'816.7
2017-Oct-16 18:30N 43°07' E 005°25'816.6
2017-Oct-16 18:00N 43°13' E 005°17'814.4
2017-Oct-16 17:29N 43°21' E 005°18'3 4.7
2017-Oct-16 16:51N 43°19' E 005°22'0 0.0
2017-Oct-16 16:30N 43°19' E 005°22'0 0.0
2017-Oct-16 15:57N 43°19' E 005°22'0 0.0
2017-Oct-16 15:27N 43°19' E 005°22'0 0.0
2017-Oct-16 13:30N 43°19' E 005°22'0 0.0
2017-Oct-16 12:27N 43°19' E 005°22'0 0.0
2017-Oct-16 12:00N 43°19' E 005°22'0 0.0
2017-Oct-16 11:30N 43°19' E 005°22'0 0.0
2017-Oct-16 11:00N 43°19' E 005°22'0 0.0
2017-Oct-16 10:30N 43°19' E 005°22'0 0.0
2017-Oct-16 10:00N 43°19' E 005°22'0 0.0
2017-Oct-16 08:06N 43°19' E 005°22'0 0.0
2017-Oct-16 08:00N 43°19' E 005°22'0 0.0
2017-Oct-16 07:21N 43°19' E 005°22'0 0.0
2017-Oct-16 06:51N 43°19' E 005°22'0 0.0
2017-Oct-16 06:21N 43°19' E 005°22'0 0.0
2017-Oct-16 05:57N 43°19' E 005°22'0 0.0
2017-Oct-16 05:30N 43°19' E 005°22'0 0.0
2017-Oct-16 04:57N 43°19' E 005°22'0 0.0
2017-Oct-16 04:30N 43°19' E 005°22'0 0.0
2017-Oct-16 04:00N 43°19' E 005°22'0 0.0
2017-Oct-16 03:30N 43°19' E 005°22'0 0.0
2017-Oct-16 02:57N 43°19' E 005°22'0 0.0
2017-Oct-16 02:30N 43°19' E 005°22'0 0.0
2017-Oct-16 01:57N 43°19' E 005°22'0 0.0
2017-Oct-16 01:30N 43°19' E 005°22'0 0.0
2017-Oct-16 01:00N 43°19' E 005°22'0 0.0
2017-Oct-16 00:30N 43°19' E 005°22'0 0.0
2017-Oct-15 23:57N 43°19' E 005°22'0 0.0
2017-Oct-15 23:30N 43°19' E 005°22'0 0.0
2017-Oct-15 23:00N 43°19' E 005°22'0 0.0
2017-Oct-15 22:30N 43°19' E 005°22'0 0.0
2017-Oct-15 22:00N 43°19' E 005°22'0 0.0
2017-Oct-15 21:30N 43°19' E 005°22'0 0.0
2017-Oct-15 21:00N 43°19' E 005°22'0 0.0
2017-Oct-15 20:30N 43°19' E 005°22'0 0.0
2017-Oct-15 20:00N 43°19' E 005°22'0 0.0
2017-Oct-15 19:30N 43°19' E 005°22'0 0.0
2017-Oct-15 19:00N 43°19' E 005°22'0 0.0
2017-Oct-15 18:30N 43°19' E 005°22'0 0.0
2017-Oct-15 18:00N 43°19' E 005°22'0 0.0
2017-Oct-15 17:27N 43°19' E 005°22'0 0.0
2017-Oct-15 17:00N 43°19' E 005°22'0 0.0
2017-Oct-15 16:30N 43°19' E 005°22'0 0.0
2017-Oct-15 16:00N 43°19' E 005°22'0 0.0
2017-Oct-15 15:30N 43°19' E 005°22'0 0.0
2017-Oct-15 14:57N 43°19' E 005°22'0 0.0
2017-Oct-15 13:57N 43°19' E 005°22'0 0.0
2017-Oct-15 13:27N 43°19' E 005°22'0 0.0
2017-Oct-15 13:00N 43°19' E 005°22'0 0.0
2017-Oct-15 12:27N 43°19' E 005°22'0 0.0
2017-Oct-15 12:00N 43°19' E 005°22'0 0.0
2017-Oct-15 11:30N 43°19' E 005°22'0 0.0
2017-Oct-15 11:00N 43°19' E 005°22'0 0.0
2017-Oct-15 10:30N 43°19' E 005°22'0 0.0
2017-Oct-15 09:57N 43°19' E 005°22'0 0.0
2017-Oct-15 09:30N 43°19' E 005°22'0 0.0
2017-Oct-15 09:00N 43°19' E 005°22'0 0.0
2017-Oct-15 08:30N 43°19' E 005°22'0 0.0
2017-Oct-15 08:00N 43°19' E 005°22'0 0.0
2017-Oct-15 07:30N 43°19' E 005°22'0 0.0
2017-Oct-15 07:00N 43°19' E 005°22'0 0.0
2017-Oct-15 06:27N 43°19' E 005°22'0 0.0
2017-Oct-15 06:00N 43°19' E 005°22'2 3.2
2017-Oct-15 05:30N 43°20' E 005°21'4 7.8
2017-Oct-15 05:00N 43°16' E 005°19'914.9
2017-Oct-15 04:23N 43°08' E 005°24'3017.7
2017-Oct-15 02:41N 42°52' E 005°59'1917.9
2017-Oct-15 01:37N 42°42' E 006°21'317.6
2017-Oct-15 01:27N 42°41' E 006°25'916.7
2017-Oct-15 00:54N 42°36' E 006°36'715.7
2017-Oct-15 00:27N 42°33' E 006°44'27 1.0
2017-Oct-13 20:57N 42°46' E 006°12'1416.5
2017-Oct-13 20:06N 42°54' E 005°56'216.5
2017-Oct-13 19:57N 42°55' E 005°53'2416.6
2017-Oct-13 18:31N 43°07' E 005°25'216.4
2017-Oct-13 18:23N 43°08' E 005°22'616.6
2017-Oct-13 18:00N 43°13' E 005°17'714.1
2017-Oct-13 17:30N 43°20' E 005°18'3 1.7
2017-Oct-13 15:44N 43°19' E 005°22'0 0.0
2017-Oct-13 15:29N 43°19' E 005°22'0 0.0
2017-Oct-13 12:02N 43°19' E 005°22'0 0.0
2017-Oct-13 11:59N 43°19' E 005°22'0 0.0
2017-Oct-13 11:29N 43°19' E 005°22'0 0.0
2017-Oct-13 10:50N 43°19' E 005°22'0 0.0
2017-Oct-13 09:26N 43°19' E 005°22'0 0.0
2017-Oct-13 08:59N 43°19' E 005°22'0 0.0
2017-Oct-13 08:08N 43°19' E 005°22'0 0.0
2017-Oct-13 07:57N 43°19' E 005°22'0 0.0
2017-Oct-13 07:30N 43°19' E 005°22'0 0.0
2017-Oct-13 06:54N 43°19' E 005°22'0 0.0
2017-Oct-13 06:06N 43°19' E 005°22'0 0.0
2017-Oct-13 06:00N 43°19' E 005°22'1 1.5
2017-Oct-13 05:30N 43°19' E 005°21'2 3.4
2017-Oct-13 05:00N 43°18' E 005°20'714.1
2017-Oct-13 04:30N 43°11' E 005°20'816.4
2017-Oct-13 04:01N 43°06' E 005°29'917.0
2017-Oct-13 03:30N 43°01' E 005°39'917.4
2017-Oct-13 03:01N 42°57' E 005°49'917.6
2017-Oct-13 02:30N 42°52' E 005°59'917.4
2017-Oct-13 02:00N 42°48' E 006°09'817.1
2017-Oct-13 01:31N 42°43' E 006°19'49 1.9
2017-Oct-11 23:25N 42°18' E 007°16'10317.1
2017-Oct-11 17:24N 43°13' E 005°17'714.7
2017-Oct-11 16:56N 43°20' E 005°18'70 4.1
2017-Oct-11 00:00N 42°37' E 006°34'  
Track history (hours):
 
Tides and Currents Weather Stations Pressure Air Temp Water Temp Dewpoint Dewpoint Depression Visibility Wind Speed Wind Dir Waves Ship Positions

Kalliste

Last reported at 2017-Oct-20 05:00 UTC. Time now 2017-Oct-20 05:30 UTC.
Position N 43°18' E 005°19'.

Length 165 m; beam 29 m.

Type: Passenger vessel. MMSI: 227202000.

Date/timePositionNaut miles runAvg speedWind from/ knotsBaromVisibWave heightAir tempDewpointWater temp
2017-Oct-20 05:00N 43°18' E 005°19'714.0
2017-Oct-20 04:30N 43°11' E 005°20'137 5.1
2017-Oct-19 01:40N 41°60' E 007°58'319.1
2017-Oct-19 01:30N 42°02' E 007°55'13016.6
2017-Oct-18 17:38N 43°09' E 005°23'215.0
2017-Oct-18 17:30N 43°10' E 005°21'714.8
2017-Oct-18 17:00N 43°17' E 005°16'5 9.6
2017-Oct-18 16:30N 43°20' E 005°20'2 3.6
2017-Oct-18 15:55N 43°19' E 005°22'0 0.0
2017-Oct-18 15:25N 43°19' E 005°22'0 0.0
2017-Oct-18 14:37N 43°19' E 005°22'0 0.0
2017-Oct-18 11:37N 43°19' E 005°22'0 0.0
2017-Oct-18 08:19N 43°19' E 005°22'0 0.2
2017-Oct-18 07:57N 43°19' E 005°22'3 6.6
2017-Oct-18 07:30N 43°21' E 005°19'713.6
2017-Oct-18 07:00N 43°14' E 005°18'7119.2
2017-Oct-18 03:19N 42°36' E 006°40'819.3
2017-Oct-18 02:53N 42°32' E 006°49'1018.9
2017-Oct-18 02:21N 42°27' E 007°02'1318.6
2017-Oct-18 01:40N 42°21' E 007°16'718.7
2017-Oct-18 01:17N 42°17' E 007°25'618.9
2017-Oct-18 00:58N 42°15' E 007°32'919.0
2017-Oct-18 00:31N 42°11' E 007°43'918.2
2017-Oct-18 00:00N 42°05' E 007°53'918.7
2017-Oct-17 23:30N 42°01' E 008°04'919.1
2017-Oct-17 23:00N 41°56' E 008°15'1218.9
2017-Oct-17 22:23N 41°50' E 008°29'718.0
2017-Oct-17 22:00N 41°50' E 008°38'1 0.3
2017-Oct-17 20:10N 41°51' E 008°38'320.0
2017-Oct-17 20:00N 41°50' E 008°34'1719.7
2017-Oct-17 19:10N 41°53' E 008°12'1815.3
2017-Oct-17 18:00N 41°44' E 008°33'10 0.8
2017-Oct-17 04:26N 41°41' E 008°46'818.3
2017-Oct-17 04:01N 41°43' E 008°36'1018.6
2017-Oct-17 03:28N 41°48' E 008°25'1418.3
2017-Oct-17 02:41N 41°56' E 008°08'318.4
2017-Oct-17 02:30N 41°57' E 008°04'1018.5
2017-Oct-17 01:58N 42°02' E 007°53'918.7
2017-Oct-17 01:30N 42°07' E 007°43'1019.2
2017-Oct-17 01:00N 42°12' E 007°32'1019.1
2017-Oct-17 00:30N 42°17' E 007°21'916.8
2017-Oct-17 00:00N 42°21' E 007°11'816.8
2017-Oct-16 23:30N 42°25' E 007°01'916.7
2017-Oct-16 22:58N 42°30' E 006°50'816.7
2017-Oct-16 22:30N 42°34' E 006°42'916.8
2017-Oct-16 22:00N 42°38' E 006°32'816.4
2017-Oct-16 21:30N 42°42' E 006°22'816.3
2017-Oct-16 21:00N 42°46' E 006°12'816.1
2017-Oct-16 20:31N 42°50' E 006°03'815.8
2017-Oct-16 20:00N 42°55' E 005°54'816.0
2017-Oct-16 19:30N 42°59' E 005°45'816.1
2017-Oct-16 19:01N 43°03' E 005°35'816.7
2017-Oct-16 18:30N 43°07' E 005°25'816.6
2017-Oct-16 18:00N 43°13' E 005°17'814.4
2017-Oct-16 17:29N 43°21' E 005°18'3 4.7
2017-Oct-16 16:51N 43°19' E 005°22'0 0.0
2017-Oct-16 16:30N 43°19' E 005°22'0 0.0
2017-Oct-16 15:57N 43°19' E 005°22'0 0.0
2017-Oct-16 15:27N 43°19' E 005°22'0 0.0
2017-Oct-16 13:30N 43°19' E 005°22'0 0.0
2017-Oct-16 12:27N 43°19' E 005°22'0 0.0
2017-Oct-16 12:00N 43°19' E 005°22'0 0.0
2017-Oct-16 11:30N 43°19' E 005°22'0 0.0
2017-Oct-16 11:00N 43°19' E 005°22'0 0.0
2017-Oct-16 10:30N 43°19' E 005°22'0 0.0
2017-Oct-16 10:00N 43°19' E 005°22'0 0.0
2017-Oct-16 08:06N 43°19' E 005°22'0 0.0
2017-Oct-16 08:00N 43°19' E 005°22'0 0.0
2017-Oct-16 07:21N 43°19' E 005°22'0 0.0
2017-Oct-16 06:51N 43°19' E 005°22'0 0.0
2017-Oct-16 06:21N 43°19' E 005°22'0 0.0
2017-Oct-16 05:57N 43°19' E 005°22'0 0.0
2017-Oct-16 05:30N 43°19' E 005°22'0 0.0
2017-Oct-16 04:57N 43°19' E 005°22'0 0.0
2017-Oct-16 04:30N 43°19' E 005°22'0 0.0
2017-Oct-16 04:00N 43°19' E 005°22'0 0.0
2017-Oct-16 03:30N 43°19' E 005°22'0 0.0
2017-Oct-16 02:57N 43°19' E 005°22'0 0.0
2017-Oct-16 02:30N 43°19' E 005°22'0 0.0
2017-Oct-16 01:57N 43°19' E 005°22'0 0.0
2017-Oct-16 01:30N 43°19' E 005°22'0 0.0
2017-Oct-16 01:00N 43°19' E 005°22'0 0.0
2017-Oct-16 00:30N 43°19' E 005°22'0 0.0
2017-Oct-15 23:57N 43°19' E 005°22'0 0.0
2017-Oct-15 23:30N 43°19' E 005°22'0 0.0
2017-Oct-15 23:00N 43°19' E 005°22'0 0.0
2017-Oct-15 22:30N 43°19' E 005°22'0 0.0
2017-Oct-15 22:00N 43°19' E 005°22'0 0.0
2017-Oct-15 21:30N 43°19' E 005°22'0 0.0
2017-Oct-15 21:00N 43°19' E 005°22'0 0.0
2017-Oct-15 20:30N 43°19' E 005°22'0 0.0
2017-Oct-15 20:00N 43°19' E 005°22'0 0.0
2017-Oct-15 19:30N 43°19' E 005°22'0 0.0
2017-Oct-15 19:00N 43°19' E 005°22'0 0.0
2017-Oct-15 18:30N 43°19' E 005°22'0 0.0
2017-Oct-15 18:00N 43°19' E 005°22'0 0.0
2017-Oct-15 17:27N 43°19' E 005°22'0 0.0
2017-Oct-15 17:00N 43°19' E 005°22'0 0.0
2017-Oct-15 16:30N 43°19' E 005°22'0 0.0
2017-Oct-15 16:00N 43°19' E 005°22'0 0.0
2017-Oct-15 15:30N 43°19' E 005°22'0 0.0
2017-Oct-15 14:57N 43°19' E 005°22'0 0.0
2017-Oct-15 13:57N 43°19' E 005°22'0 0.0
2017-Oct-15 13:27N 43°19' E 005°22'0 0.0
2017-Oct-15 13:00N 43°19' E 005°22'0 0.0
2017-Oct-15 12:27N 43°19' E 005°22'0 0.0
2017-Oct-15 12:00N 43°19' E 005°22'0 0.0
2017-Oct-15 11:30N 43°19' E 005°22'0 0.0
2017-Oct-15 11:00N 43°19' E 005°22'0 0.0
2017-Oct-15 10:30N 43°19' E 005°22'0 0.0
2017-Oct-15 09:57N 43°19' E 005°22'0 0.0
2017-Oct-15 09:30N 43°19' E 005°22'0 0.0
2017-Oct-15 09:00N 43°19' E 005°22'0 0.0
2017-Oct-15 08:30N 43°19' E 005°22'0 0.0
2017-Oct-15 08:00N 43°19' E 005°22'0 0.0
2017-Oct-15 07:30N 43°19' E 005°22'0 0.0
2017-Oct-15 07:00N 43°19' E 005°22'0 0.0
2017-Oct-15 06:27N 43°19' E 005°22'0 0.0
2017-Oct-15 06:00N 43°19' E 005°22'2 3.2
2017-Oct-15 05:30N 43°20' E 005°21'4 7.8
2017-Oct-15 05:00N 43°16' E 005°19'914.9
2017-Oct-15 04:23N 43°08' E 005°24'3017.7
2017-Oct-15 02:41N 42°52' E 005°59'1917.9
2017-Oct-15 01:37N 42°42' E 006°21'317.6
2017-Oct-15 01:27N 42°41' E 006°25'916.7
2017-Oct-15 00:54N 42°36' E 006°36'715.7
2017-Oct-15 00:27N 42°33' E 006°44'27 1.0
2017-Oct-13 20:57N 42°46' E 006°12'1416.5
2017-Oct-13 20:06N 42°54' E 005°56'216.5
2017-Oct-13 19:57N 42°55' E 005°53'2416.6
2017-Oct-13 18:31N 43°07' E 005°25'216.4
2017-Oct-13 18:23N 43°08' E 005°22'616.6
2017-Oct-13 18:00N 43°13' E 005°17'714.1
2017-Oct-13 17:30N 43°20' E 005°18'3 1.7
2017-Oct-13 15:44N 43°19' E 005°22'0 0.0
2017-Oct-13 15:29N 43°19' E 005°22'0 0.0
2017-Oct-13 12:02N 43°19' E 005°22'0 0.0
2017-Oct-13 11:59N 43°19' E 005°22'0 0.0
2017-Oct-13 11:29N 43°19' E 005°22'0 0.0
2017-Oct-13 10:50N 43°19' E 005°22'0 0.0
2017-Oct-13 09:26N 43°19' E 005°22'0 0.0
2017-Oct-13 08:59N 43°19' E 005°22'0 0.0
2017-Oct-13 08:08N 43°19' E 005°22'0 0.0
2017-Oct-13 07:57N 43°19' E 005°22'0 0.0
2017-Oct-13 07:30N 43°19' E 005°22'0 0.0
2017-Oct-13 06:54N 43°19' E 005°22'0 0.0
2017-Oct-13 06:06N 43°19' E 005°22'0 0.0
2017-Oct-13 06:00N 43°19' E 005°22'1 1.5
2017-Oct-13 05:30N 43°19' E 005°21'2 3.4
2017-Oct-13 05:00N 43°18' E 005°20'714.1
2017-Oct-13 04:30N 43°11' E 005°20'816.4
2017-Oct-13 04:01N 43°06' E 005°29'917.0
2017-Oct-13 03:30N 43°01' E 005°39'917.4
2017-Oct-13 03:01N 42°57' E 005°49'917.6
2017-Oct-13 02:30N 42°52' E 005°59'917.4
2017-Oct-13 02:00N 42°48' E 006°09'817.1
2017-Oct-13 01:31N 42°43' E 006°19'49 1.9
2017-Oct-11 23:25N 42°18' E 007°16'10317.1
2017-Oct-11 17:24N 43°13' E 005°17'714.7
2017-Oct-11 16:56N 43°20' E 005°18'70 4.1
2017-Oct-11 00:00N 42°37' E 006°34'  

Dump ship's entire track history